College Corner, Indiana
Current Conditions -  °F | °C
As of 10:53 AM on Friday 28 Nov 2014 (Local Time) from KMIE Reporting Station
Overcast Overcast  
Wind Chill: 16°   Ceiling: 5500
Heat Index: 26°   Visibility: 9mi
Dew Point: 19°   Wind: 10mph
Humidity: 75%   Direction: 200°SSW
Pressure: 30.32"   Gusts: NA
Location:  40.4312°N, 85.0058°W
Report Text: KMIE 281553Z 20009KT 9SM BKN055 OVC075 M03/M07 A3032 RMK AO2 SLP275 T10331072
Loading
Personal Weather Stations






























Interactive Weather Map New forecast layout! Learn more

10-Day Weather Forecast

Advertisements
Track Severe Weather on mobile